Time;durP1;ratioP1;P1;durP2;ratioP2;P2;SDS_P1;SDS_P2;PMS_P1;PMS_P2;Temp;Humidity;BMP_temperature;BMP_pressure;BME280_temperature;BME280_humidity;BME280_pressure;Samples;Min_cycle;Max_cycle;Signal;HPM_P1;HPM_P2
2022/06/21 00:00:22;;;;;;;4.93;1.27;;;;;;;15.59;50.36;99919.34;4973004;28;20062;-60
2022/06/21 00:02:53;;;;;;;;;;;;;;;15.57;49.26;99924.75;4973676;28;20055;-62
2022/06/21 00:05:31;;;;;;;4.00;1.13;;;;;;;15.57;50.65;99910.63;4973526;28;20329;-61
2022/06/21 00:07:57;;;;;;;3.53;1.30;;;;;;;15.58;49.83;99907.00;4956140;28;20046;-61
2022/06/21 00:10:24;;;;;;;5.97;1.48;;;;;;;15.54;50.06;99909.06;4972883;28;20093;-60
2022/06/21 00:12:51;;;;;;;9.48;1.80;;;;;;;15.52;50.22;99905.69;4973194;28;20403;-62
2022/06/21 00:15:18;;;;;;;5.55;1.45;;;;;;;15.49;50.28;99904.13;4973080;28;20488;-61
2022/06/21 00:17:48;;;;;;;7.18;1.30;;;;;;;15.46;50.97;99901.69;4973243;28;20061;-62
2022/06/21 00:20:20;;;;;;;6.00;1.35;;;;;;;15.44;51.28;99897.47;4955837;28;20058;-62
2022/06/21 00:22:49;;;;;;;4.38;1.40;;;;;;;15.44;50.72;99892.97;4955893;28;20292;-60
2022/06/21 00:25:20;;;;;;;6.68;1.40;;;;;;;15.41;51.36;99885.28;4955651;28;20055;-62
2022/06/21 00:27:47;;;;;;;2.67;0.98;;;;;;;15.41;50.85;99893.25;4972900;28;20051;-61
2022/06/21 00:30:16;;;;;;;4.32;1.20;;;;;;;15.37;51.03;99886.47;4971227;28;20055;-61
2022/06/21 00:32:45;;;;;;;3.25;1.35;;;;;;;15.36;51.31;99895.38;4971847;28;20057;-61
2022/06/21 00:35:16;;;;;;;6.72;1.48;;;;;;;15.33;51.79;99908.88;4972815;28;20046;-63
2022/06/21 00:37:44;;;;;;;5.88;1.50;;;;;;;15.31;51.21;99909.00;4972672;28;20047;-60
2022/06/21 00:40:22;;;;;;;6.78;1.70;;;;;;;15.26;51.75;99919.09;4972396;28;20050;-62
2022/06/21 00:43:09;;;;;;;4.90;1.30;;;;;;;15.23;52.25;99914.00;4972324;28;20094;-61
2022/06/21 00:45:39;;;;;;;8.27;1.67;;;;;;;15.22;51.96;99913.16;4972440;28;20258;-62
2022/06/21 00:48:17;;;;;;;5.32;1.45;;;;;;;15.18;52.63;99913.53;4972183;28;20062;-62
2022/06/21 00:51:18;;;;;;;8.10;1.88;;;;;;;15.18;52.46;99913.53;4972268;28;20055;-61
2022/06/21 00:54:03;;;;;;;5.80;1.33;;;;;;;15.13;52.50;99903.25;4939856;28;20050;-61
2022/06/21 00:56:52;;;;;;;7.40;1.52;;;;;;;15.11;52.45;99899.88;4955192;28;20051;-61
2022/06/21 00:59:28;;;;;;;4.70;1.55;;;;;;;15.14;52.58;99904.91;4972184;28;20086;-61
2022/06/21 01:02:03;;;;;;;6.10;1.63;;;;;;;15.10;52.83;99893.72;4955229;28;20130;-62
2022/06/21 01:04:37;;;;;;;6.50;1.48;;;;;;;15.09;52.82;99888.50;4955339;28;20473;-60
2022/06/21 01:07:08;;;;;;;4.65;1.23;;;;;;;15.08;52.67;99878.88;4972403;28;20055;-61
2022/06/21 01:09:42;;;;;;;7.32;1.40;;;;;;;15.08;52.53;99878.88;4954965;28;20139;-61
2022/06/21 01:12:20;;;;;;;11.55;1.80;;;;;;;15.02;53.34;99887.28;4972075;28;20054;-63
2022/06/21 01:14:58;;;;;;;7.65;1.50;;;;;;;15.01;53.54;99890.88;4955339;28;20584;-61
2022/06/21 01:17:27;;;;;;;4.55;1.42;;;;;;;15.03;52.52;99894.28;4954948;28;20051;-62
2022/06/21 01:20:01;;;;;;;7.80;1.67;;;;;;;14.99;53.64;99880.38;4971896;28;20392;-61
2022/06/21 01:23:16;;;;;;;3.55;1.45;;;;;;;14.94;53.02;99875.44;4972195;28;20455;-61
2022/06/21 01:25:54;;;;;;;5.35;1.15;;;;;;;14.97;53.36;99893.78;4912038;29;20056;-60
2022/06/21 01:28:21;;;;;;;5.28;1.50;;;;;;;14.97;52.61;99893.78;4896098;29;20052;-62
2022/06/21 01:30:53;;;;;;;5.75;1.40;;;;;;;14.95;53.39;99878.94;4948886;28;20109;-61
2022/06/21 01:33:35;;;;;;;6.38;1.70;;;;;;;14.90;53.70;99881.94;4954361;28;20499;-61
2022/06/21 01:36:09;;;;;;;7.93;1.65;;;;;;;14.91;53.67;99888.91;4954562;28;20062;-61
2022/06/21 01:38:51;;;;;;;6.28;1.65;;;;;;;14.88;53.83;99894.44;4971772;28;20070;-61
2022/06/21 01:41:33;;;;;;;4.18;1.42;;;;;;;14.89;53.17;99895.28;4972100;28;20113;-60
2022/06/21 01:44:07;;;;;;;6.43;1.30;;;;;;;14.85;53.24;99892.03;4975829;28;20055;-62
2022/06/21 01:46:34;;;;;;;5.53;1.40;;;;;;;14.84;52.72;99899.13;4960853;28;20054;-61
2022/06/21 01:49:23;;;;;;;5.32;1.45;;;;;;;14.76;53.61;99892.66;4960789;28;20391;-61
2022/06/21 01:51:56;;;;;;;4.88;1.60;;;;;;;14.78;53.71;99898.72;4961077;28;20458;-62
2022/06/21 01:54:25;;;;;;;;;;;;;;;14.77;52.19;99902.34;4961202;28;20466;-60
2022/06/21 01:56:52;;;;;;;6.47;1.50;;;;;;;14.79;52.59;99887.16;4978686;28;19926;-63
2022/06/21 01:59:25;;;;;;;6.22;1.40;;;;;;;14.75;53.58;99896.25;4978160;28;20050;-62
2022/06/21 02:01:58;;;;;;;11.45;1.65;;;;;;;14.71;53.99;99896.50;4978061;28;20054;-61
2022/06/21 02:04:29;;;;;;;7.15;2.03;;;;;;;14.70;53.85;99897.44;4977979;28;20553;-61
2022/06/21 02:07:01;;;;;;;6.03;1.65;;;;;;;14.69;54.55;99885.16;4978101;28;20522;-62
2022/06/21 02:09:34;;;;;;;13.88;2.00;;;;;;;14.69;54.62;99897.56;4977634;28;20062;-61
2022/06/21 02:12:05;;;;;;;7.25;1.75;;;;;;;14.69;54.42;99901.03;4978118;28;20074;-61
2022/06/21 02:14:39;;;;;;;5.47;1.58;;;;;;;14.68;54.58;99902.00;4978443;28;20095;-63
2022/06/21 02:17:31;;;;;;;9.25;1.80;;;;;;;14.66;55.10;99898.59;4960975;28;20050;-60
2022/06/21 02:20:10;;;;;;;7.85;1.58;;;;;;;14.67;54.92;99887.06;4960719;28;20051;-62
2022/06/21 02:22:37;;;;;;;6.40;1.90;;;;;;;14.69;54.00;99881.66;4977853;28;20175;-63
2022/06/21 02:25:05;;;;;;;4.18;1.77;;;;;;;14.67;54.26;99873.81;4977928;28;20054;-62
2022/06/21 02:27:35;;;;;;;7.60;1.73;;;;;;;14.66;54.93;99864.16;4960827;28;20047;-62
2022/06/21 02:30:07;;;;;;;10.45;2.38;;;;;;;14.65;54.95;99851.88;4960319;28;20050;-61
2022/06/21 02:32:37;;;;;;;5.33;1.53;;;;;;;14.66;54.71;99842.97;4977504;28;20062;-61
2022/06/21 02:35:20;;;;;;;7.20;1.55;;;;;;;14.67;54.77;99841.19;4977603;28;20353;-61
2022/06/21 02:37:49;;;;;;;5.93;1.60;;;;;;;14.66;54.34;99850.91;4977548;28;20054;-62
2022/06/21 02:40:21;;;;;;;13.65;2.00;;;;;;;14.65;54.86;99862.47;4977567;28;20109;-61
2022/06/21 02:42:51;;;;;;;7.90;1.98;;;;;;;14.65;54.31;99859.84;4977992;28;20150;-62
2022/06/21 02:45:27;;;;;;;7.03;1.42;;;;;;;14.61;55.04;99847.75;4977569;28;20058;-62
2022/06/21 02:48:00;;;;;;;6.38;1.85;;;;;;;14.61;54.67;99847.75;4977901;28;20447;-61
2022/06/21 02:50:56;;;;;;;7.25;1.90;;;;;;;14.59;54.58;99858.47;4960126;28;20055;-62
2022/06/21 02:53:30;;;;;;;5.15;1.35;;;;;;;14.57;54.04;99867.47;4908479;28;20152;-61
2022/06/21 02:56:09;;;;;;;7.78;1.85;;;;;;;14.52;54.50;99864.31;4974222;28;20443;-60
2022/06/21 02:58:44;;;;;;;5.63;1.67;;;;;;;14.50;54.47;99855.66;4974530;28;20492;-61
2022/06/21 03:01:34;;;;;;;4.78;1.63;;;;;;;14.45;55.03;99848.91;4974665;28;20054;-60
2022/06/21 03:04:01;;;;;;;4.00;1.40;;;;;;;14.42;54.50;99851.75;4974515;28;20566;-62
2022/06/21 03:06:31;;;;;;;7.05;2.50;;;;;;;14.40;55.11;99850.16;4974331;28;20051;-60
2022/06/21 03:09:06;;;;;;;8.57;1.98;;;;;;;14.37;55.97;99853.88;4973963;28;20050;-61
2022/06/21 03:11:39;;;;;;;5.28;1.80;;;;;;;14.37;55.78;99845.94;4974446;28;20058;-62
2022/06/21 03:14:11;;;;;;;6.95;1.90;;;;;;;14.37;55.66;99838.00;4974308;28;20062;-60
2022/06/21 03:16:39;;;;;;;6.97;2.22;;;;;;;14.39;55.31;99840.53;4974183;28;20062;-61
2022/06/21 03:19:15;;;;;;;7.40;1.77;;;;;;;14.38;55.65;99839.69;4974237;28;20058;-62
2022/06/21 03:21:43;;;;;;;10.13;1.60;;;;;;;14.39;55.00;99841.38;4974058;28;20054;-60
2022/06/21 03:24:15;;;;;;;4.07;1.77;;;;;;;14.38;55.71;99844.97;4974064;28;20053;-62
2022/06/21 03:26:47;;;;;;;7.18;2.00;;;;;;;14.38;55.93;99850.28;4974127;28;20050;-62
2022/06/21 03:29:14;;;;;;;7.28;2.00;;;;;;;14.39;54.96;99849.31;4956776;28;20054;-61
2022/06/21 03:31:48;;;;;;;4.22;1.67;;;;;;;14.38;55.81;99850.28;4974087;28;20062;-61
2022/06/21 03:34:20;;;;;;;9.38;1.92;;;;;;;14.37;56.33;99845.09;4973847;28;20057;-61
2022/06/21 03:36:50;;;;;;;9.95;2.28;;;;;;;14.38;55.67;99844.97;4956869;28;20086;-61
2022/06/21 03:41:42;;;;;;;8.63;1.98;;;;;;;14.37;56.15;99848.59;4973727;28;20073;-61
2022/06/21 03:42:11;;;;;;;5.15;2.17;;;;;;;14.40;55.63;99844.88;4973897;28;20047;-60
2022/06/21 03:44:44;;;;;;;9.05;1.92;;;;;;;14.39;56.73;99849.31;4973707;28;20051;-61
2022/06/21 03:47:23;;;;;;;7.57;2.50;;;;;;;14.38;56.96;99844.97;4973825;28;20065;-61
2022/06/21 03:50:15;;;;;;;7.97;2.03;;;;;;;14.44;55.88;99849.81;4973526;28;20062;-62
2022/06/21 03:52:49;;;;;;;5.47;1.40;;;;;;;14.45;56.64;99863.94;4971844;28;20057;-61
2022/06/21 03:55:41;;;;;;;5.32;1.80;;;;;;;14.44;56.45;99870.19;4956439;28;20051;-61
2022/06/21 03:58:28;;;;;;;3.80;1.40;;;;;;;14.44;56.38;99875.47;4956590;28;20109;-61
2022/06/21 04:01:12;;;;;;;5.68;1.90;;;;;;;14.42;56.14;99878.22;4956244;28;20050;-62
2022/06/21 04:03:49;;;;;;;6.63;1.90;;;;;;;14.42;56.61;99875.59;4973413;28;20054;-60
2022/06/21 04:06:23;;;;;;;9.35;2.17;;;;;;;14.41;56.53;99873.91;4973300;28;20067;-60
2022/06/21 04:09:08;;;;;;;9.27;1.92;;;;;;;14.43;56.01;99871.16;4973095;28;20050;-61
2022/06/21 04:11:49;;;;;;;5.75;1.80;;;;;;;14.41;57.29;99875.69;4973481;28;20443;-61
2022/06/21 04:14:21;;;;;;;5.75;1.80;;;;;;;14.45;56.17;99878.03;4956065;28;20046;-61
2022/06/21 04:17:01;;;;;;;10.05;2.20;;;;;;;14.45;57.15;99878.03;4973414;28;20105;-60
2022/06/21 04:19:39;;;;;;;6.90;1.60;;;;;;;14.49;57.36;99870.69;4955654;28;20062;-62
2022/06/21 04:22:12;;;;;;;7.38;2.05;;;;;;;14.55;56.26;99880.00;4973481;28;20089;-60
2022/06/21 04:24:58;;;;;;;8.70;1.85;;;;;;;14.54;57.70;99881.78;4971755;28;20075;-61
2022/06/21 04:27:31;;;;;;;4.63;1.45;;;;;;;14.62;56.48;99877.75;4955731;28;20055;-61
2022/06/21 04:30:12;;;;;;;12.40;1.95;;;;;;;14.64;57.76;99883.78;4972657;28;20055;-61
2022/06/21 04:32:47;;;;;;;9.32;1.90;;;;;;;14.68;57.69;99888.75;4972706;28;20538;-60
2022/06/21 04:35:33;;;;;;;8.40;2.00;;;;;;;14.70;57.63;99886.84;4972936;28;20583;-60
2022/06/21 04:38:07;;;;;;;6.70;1.80;;;;;;;14.77;57.35;99887.25;4972914;28;20057;-61
2022/06/21 04:40:46;;;;;;;12.93;2.13;;;;;;;14.80;57.83;99887.03;4955685;28;20465;-61
2022/06/21 04:43:29;;;;;;;7.75;2.10;;;;;;;14.87;56.82;99889.28;4955920;28;20047;-61
2022/06/21 04:46:00;;;;;;;4.28;1.85;;;;;;;14.90;57.46;99887.22;4972841;28;20055;-61
2022/06/21 04:48:57;;;;;;;7.97;1.77;;;;;;;14.94;56.98;99893.13;4972426;28;20042;-62
2022/06/21 04:51:34;;;;;;;3.30;1.65;;;;;;;14.95;57.88;99885.06;4960102;28;20055;-62
2022/06/21 04:54:04;;;;;;;5.13;1.63;;;;;;;15.01;57.50;99885.59;4955265;28;20055;-61
2022/06/21 04:56:47;;;;;;;8.70;1.92;;;;;;;15.06;56.77;99894.06;4972494;28;20058;-62
2022/06/21 04:59:22;;;;;;;7.38;1.55;;;;;;;15.07;57.91;99898.41;4972650;28;20114;-62
2022/06/21 05:01:49;;;;;;;10.48;1.92;;;;;;;15.14;56.97;99910.22;4972398;28;20057;-61
2022/06/21 05:04:23;;;;;;;5.38;1.67;;;;;;;15.16;58.06;99908.31;4972323;28;20053;-61
2022/06/21 05:06:52;;;;;;;6.20;1.48;;;;;;;15.21;57.38;99906.16;4971278;28;20105;-62
2022/06/21 05:09:22;;;;;;;5.45;1.50;;;;;;;15.25;57.59;99906.78;4971871;28;20491;-61
2022/06/21 05:11:57;;;;;;;6.05;1.63;;;;;;;15.27;58.20;99910.19;4955109;28;20050;-61
2022/06/21 05:14:27;;;;;;;7.43;1.70;;;;;;;15.33;57.56;99919.50;4972317;28;20055;-61
2022/06/21 05:16:54;;;;;;;7.35;1.65;;;;;;;15.37;56.96;99918.31;4972085;28;20046;-63
2022/06/21 05:19:33;;;;;;;4.95;1.65;;;;;;;15.39;57.98;99926.97;4971246;28;20133;-61
2022/06/21 05:22:14;;;;;;;5.63;1.40;;;;;;;15.46;56.99;99917.59;4971959;28;20047;-61
2022/06/21 05:24:41;;;;;;;9.32;1.70;;;;;;;15.52;57.12;99912.78;4972137;28;20051;-62
2022/06/21 05:27:31;;;;;;;7.05;1.60;;;;;;;15.53;57.40;99909.16;4972040;28;20047;-62
2022/06/21 05:30:12;;;;;;;5.45;1.33;;;;;;;15.62;56.73;99911.97;4954427;28;20086;-62
2022/06/21 05:32:52;;;;;;;5.97;2.00;;;;;;;15.65;57.15;99916.22;4971839;28;20054;-62
2022/06/21 05:35:26;;;;;;;9.57;1.70;;;;;;;15.70;57.37;99916.69;4971756;28;20055;-61
2022/06/21 05:38:17;;;;;;;5.25;1.80;;;;;;;15.74;57.08;99910.19;4972004;28;20055;-61
2022/06/21 05:40:50;;;;;;;6.45;1.80;;;;;;;15.83;56.51;99905.16;4971546;28;20047;-60
2022/06/21 05:43:34;;;;;;;5.65;1.30;;;;;;;15.86;56.71;99910.22;4954756;28;20538;-62
2022/06/21 05:46:05;;;;;;;8.15;1.50;;;;;;;15.92;56.38;99911.56;4971565;28;20546;-61
2022/06/21 05:48:37;;;;;;;11.30;1.75;;;;;;;15.95;56.45;99914.84;4971734;28;20074;-60
2022/06/21 05:51:19;;;;;;;7.28;1.63;;;;;;;15.99;56.53;99902.19;4955613;28;20483;-60
2022/06/21 05:54:04;;;;;;;8.85;1.50;;;;;;;16.03;56.48;99895.66;4954746;28;20607;-60
2022/06/21 05:56:31;;;;;;;4.57;1.73;;;;;;;16.09;55.89;99903.16;4971835;28;20443;-62
2022/06/21 05:59:03;;;;;;;8.27;1.83;;;;;;;16.13;56.20;99907.28;4971504;28;20054;-61
2022/06/21 06:01:42;;;;;;;6.80;1.75;;;;;;;16.17;56.44;99910.53;4971976;28;20054;-61
2022/06/21 06:04:15;;;;;;;11.98;1.60;;;;;;;16.25;56.18;99902.81;4970541;28;20043;-61
2022/06/21 06:06:44;;;;;;;9.15;1.75;;;;;;;16.33;56.15;99896.06;4971842;28;20110;-61
2022/06/21 06:09:22;;;;;;;6.38;1.98;;;;;;;16.37;55.87;99905.47;4954398;28;20054;-60
2022/06/21 06:12:03;;;;;;;7.38;1.60;;;;;;;16.46;56.13;99902.06;4971594;28;20522;-63
2022/06/21 06:14:49;;;;;;;5.80;1.55;;;;;;;16.55;56.31;99900.47;4971754;28;20046;-62
2022/06/21 06:17:45;;;;;;;5.90;1.80;;;;;;;16.59;55.97;99899.25;4971613;28;20491;-61
2022/06/21 06:20:11;;;;;;;7.13;1.63;;;;;;;16.70;55.52;99882.47;4969941;28;20534;-62
2022/06/21 06:22:44;;;;;;;7.75;1.98;;;;;;;16.72;55.40;99885.84;4971339;28;20110;-61
2022/06/21 06:25:18;;;;;;;8.45;1.40;;;;;;;16.76;55.34;99892.59;4971577;28;20396;-60
2022/06/21 06:27:59;;;;;;;5.68;1.52;;;;;;;16.79;55.57;99895.00;4954411;28;20066;-62
2022/06/21 06:30:38;;;;;;;7.93;1.80;;;;;;;16.84;55.56;99899.94;4972490;28;20050;-61
2022/06/21 06:33:38;;;;;;;7.07;1.90;;;;;;;16.90;55.48;99887.97;4957791;28;20090;-60
2022/06/21 06:36:14;;;;;;;10.13;2.17;;;;;;;17.01;55.50;99889.75;4974880;28;20125;-61
2022/06/21 06:38:41;;;;;;;7.70;1.90;;;;;;;17.09;55.28;99886.50;4974743;28;20511;-61
2022/06/21 06:41:14;;;;;;;4.72;1.50;;;;;;;17.15;55.21;99885.97;4957348;28;20487;-62
2022/06/21 06:43:47;;;;;;;8.48;2.08;;;;;;;17.22;55.23;99881.84;4974669;28;20105;-60
2022/06/21 06:46:36;;;;;;;7.10;1.88;;;;;;;17.27;55.00;99890.28;4957052;28;20062;-63
2022/06/21 06:49:24;;;;;;;6.25;2.00;;;;;;;17.36;54.89;99899.31;4957590;28;20047;-62
2022/06/21 06:52:02;;;;;;;6.97;1.85;;;;;;;17.43;54.58;99900.47;4974666;28;20077;-61
2022/06/21 06:54:39;;;;;;;13.38;2.55;;;;;;;17.51;54.42;99909.63;4957381;28;20050;-61
2022/06/21 06:57:20;;;;;;;7.18;2.15;;;;;;;17.57;54.20;99917.13;4957440;28;20058;-62
2022/06/21 06:59:47;;;;;;;5.47;1.63;;;;;;;17.65;54.34;99911.97;4972649;28;20117;-62
2022/06/21 07:02:24;;;;;;;8.07;2.17;;;;;;;17.69;54.02;99912.56;4974566;28;20507;-61
2022/06/21 07:05:02;;;;;;;9.15;2.42;;;;;;;17.77;54.13;99922.56;4974638;28;20055;-61
2022/06/21 07:07:41;;;;;;;10.07;2.50;;;;;;;17.79;53.57;99924.13;4974298;28;20141;-62
2022/06/21 07:10:15;;;;;;;9.13;2.55;;;;;;;17.84;53.12;99918.41;4974186;28;20133;-62
2022/06/21 07:12:42;;;;;;;9.38;2.65;;;;;;;17.87;53.02;99920.78;4974295;28;20176;-62
2022/06/21 07:15:11;;;;;;;5.80;1.88;;;;;;;17.87;53.06;99923.44;4974277;28;20058;-63
2022/06/21 07:17:51;;;;;;;8.88;2.30;;;;;;;17.82;52.73;99926.53;4956945;28;20542;-60
2022/06/21 07:20:35;;;;;;;6.72;1.90;;;;;;;17.83;52.33;99922.88;4974008;28;20058;-62
2022/06/21 07:23:03;;;;;;;6.25;1.77;;;;;;;17.82;52.52;99918.53;4956978;28;20495;-61
2022/06/21 07:25:33;;;;;;;5.65;1.83;;;;;;;17.79;52.77;99920.63;4957017;28;20054;-61
2022/06/21 07:28:12;;;;;;;8.65;1.88;;;;;;;17.77;52.97;99918.09;4974300;28;20081;-62
2022/06/21 07:30:42;;;;;;;6.85;2.05;;;;;;;17.84;52.81;99899.78;4956773;28;20050;-61
2022/06/21 07:33:34;;;;;;;8.40;1.70;;;;;;;17.84;52.89;99902.44;4973802;28;20058;-61
2022/06/21 07:36:12;;;;;;;9.00;1.80;;;;;;;17.91;52.79;99908.06;4965313;28;20050;-63
2022/06/21 07:38:51;;;;;;;6.70;1.92;;;;;;;17.97;53.03;99918.19;4973735;28;20046;-63
2022/06/21 07:41:26;;;;;;;5.82;1.50;;;;;;;18.05;53.25;99917.56;4972850;28;20051;-61
2022/06/21 07:43:58;;;;;;;9.43;2.20;;;;;;;18.14;52.63;99923.91;4973876;28;20058;-61
2022/06/21 07:46:32;;;;;;;5.25;1.70;;;;;;;18.21;51.78;99922.44;4973936;28;20059;-62
2022/06/21 07:49:14;;;;;;;7.25;1.77;;;;;;;18.27;51.41;99911.22;4956371;28;20050;-61
2022/06/21 07:51:46;;;;;;;7.07;1.83;;;;;;;18.37;52.22;99905.94;4956670;28;20057;-62
2022/06/21 07:54:30;;;;;;;6.75;1.60;;;;;;;18.41;52.42;99915.34;4956701;28;20061;-62
2022/06/21 07:57:05;;;;;;;4.55;1.63;;;;;;;18.52;52.30;99916.22;4956434;28;20463;-61
2022/06/21 07:59:43;;;;;;;7.47;1.52;;;;;;;18.59;51.61;99910.22;4973334;28;20055;-61
2022/06/21 08:07:50;;;;;;;8.35;1.85;;;;;;;18.88;51.60;99903.25;4973186;28;20050;-62
2022/06/21 08:10:19;;;;;;;8.93;1.95;;;;;;;18.96;51.25;99908.75;4973132;28;20097;-61
2022/06/21 08:12:48;;;;;;;6.95;1.75;;;;;;;19.07;51.08;99909.63;4955956;28;20054;-62
2022/06/21 08:15:16;;;;;;;6.68;1.63;;;;;;;19.16;50.96;99908.78;4956156;28;20065;-61
2022/06/21 08:17:57;;;;;;;10.50;2.13;;;;;;;19.21;50.21;99900.38;4972075;28;20054;-61
2022/06/21 08:20:31;;;;;;;5.85;1.98;;;;;;;19.32;50.61;99892.19;4972993;28;20407;-63
2022/06/21 08:23:12;;;;;;;8.75;2.28;;;;;;;19.40;51.50;99897.69;4973159;28;20043;-62
2022/06/21 08:25:44;;;;;;;10.23;1.65;;;;;;;19.52;49.80;99902.88;4955836;28;20130;-61
2022/06/21 08:28:48;;;;;;;5.25;1.67;;;;;;;19.58;49.61;99910.31;4972978;28;20133;-61
2022/06/21 08:31:21;;;;;;;7.10;1.83;;;;;;;19.70;49.46;99902.16;4942254;28;20059;-60
2022/06/21 08:34:09;;;;;;;4.53;1.73;;;;;;;19.78;49.96;99897.75;4972957;28;20043;-63
2022/06/21 08:36:44;;;;;;;6.35;1.58;;;;;;;19.89;49.74;99895.91;4972634;28;20427;-61
2022/06/21 08:39:22;;;;;;;6.30;1.50;;;;;;;19.97;49.15;99893.38;4955343;28;20055;-61
2022/06/21 08:42:03;;;;;;;3.53;1.35;;;;;;;20.08;49.08;99881.69;4972586;28;20125;-63
2022/06/21 08:48:11;;;;;;;7.05;1.88;;;;;;;20.30;49.00;99885.78;4972296;28;20051;-63
2022/06/21 08:50:55;;;;;;;4.75;1.65;;;;;;;20.40;48.74;99880.41;4972477;28;20133;-61
2022/06/21 08:54:05;;;;;;;6.05;1.83;;;;;;;20.51;48.17;99881.19;4955372;28;20550;-63
2022/06/21 08:56:50;;;;;;;5.78;1.50;;;;;;;20.62;48.48;99886.34;4972485;28;20396;-62
2022/06/21 08:59:38;;;;;;;3.13;1.25;;;;;;;20.70;47.60;99891.78;4972389;28;20906;-61
2022/06/21 09:02:20;;;;;;;4.82;1.52;;;;;;;20.79;47.94;99881.16;4972186;28;20059;-62
2022/06/21 09:05:19;;;;;;;3.55;1.17;;;;;;;20.86;48.00;99876.06;4972335;28;20584;-61
2022/06/21 09:08:30;;;;;;;4.53;1.45;;;;;;;20.94;47.92;99866.28;4972409;28;20121;-61
2022/06/21 09:11:21;;;;;;;8.52;2.00;;;;;;;21.06;48.44;99879.44;4972234;28;20109;-63
2022/06/21 09:14:12;;;;;;;4.22;1.38;;;;;;;21.15;48.16;99877.69;4972222;28;20483;-62
2022/06/21 09:16:54;;;;;;;5.53;1.52;;;;;;;21.28;47.55;99871.94;4972082;28;20059;-64
2022/06/21 09:19:47;;;;;;;4.93;1.33;;;;;;;21.36;47.01;99872.00;4971822;28;20518;-61
2022/06/21 09:22:25;;;;;;;4.60;1.35;;;;;;;21.52;46.50;99862.44;4972203;28;20054;-62
2022/06/21 09:25:13;;;;;;;7.07;1.50;;;;;;;21.58;47.43;99851.94;4972233;28;20061;-62
2022/06/21 09:27:47;;;;;;;5.25;1.40;;;;;;;21.71;47.30;99851.50;4971870;28;20058;-61
2022/06/21 09:30:26;;;;;;;5.88;1.50;;;;;;;21.80;47.49;99854.25;4954512;28;20053;-62
2022/06/21 09:32:53;;;;;;;4.88;1.70;;;;;;;21.94;47.16;99847.47;4971852;28;20061;-61
2022/06/21 09:35:42;;;;;;;5.47;1.80;;;;;;;22.02;47.11;99847.50;4971779;28;20414;-62
2022/06/21 09:38:35;;;;;;;4.82;1.30;;;;;;;22.17;46.42;99846.91;4971476;28;20105;-62
2022/06/21 09:41:28;;;;;;;11.23;2.45;;;;;;;22.30;45.98;99838.38;4954739;28;20141;-62
2022/06/21 09:44:26;;;;;;;2.97;1.05;;;;;;;22.40;46.62;99839.09;4971604;28;20074;-62
2022/06/21 09:47:12;;;;;;;4.68;1.25;;;;;;;22.53;45.60;99825.22;4938848;28;20051;-63
2022/06/21 09:49:53;;;;;;;9.13;1.42;;;;;;;22.61;44.31;99821.75;4971457;28;20053;-64
2022/06/21 09:52:30;;;;;;;5.40;1.67;;;;;;;22.71;44.44;99829.63;4971551;28;20125;-63
2022/06/21 09:55:12;;;;;;;4.03;1.40;;;;;;;22.78;44.44;99834.19;4954824;28;20055;-63
2022/06/21 09:58:08;;;;;;;4.47;1.35;;;;;;;22.87;44.44;99832.34;4971814;28;20050;-62
2022/06/21 10:00:40;;;;;;;6.07;1.63;;;;;;;22.95;44.42;99839.53;4971769;28;20046;-62
2022/06/21 10:03:41;;;;;;;4.30;1.40;;;;;;;23.02;43.86;99842.41;4954226;28;20059;-62
2022/06/21 10:06:20;;;;;;;4.53;1.58;;;;;;;23.13;44.10;99828.66;4975700;28;20061;-62
2022/06/21 10:09:06;;;;;;;4.32;1.17;;;;;;;23.19;43.47;99831.66;4975409;28;20506;-62
2022/06/21 10:11:44;;;;;;;10.32;1.60;;;;;;;23.28;44.24;99828.81;4958525;28;20065;-62
2022/06/21 10:14:52;;;;;;;8.30;1.60;;;;;;;23.34;44.38;99816.59;4975460;28;20433;-62
2022/06/21 10:17:47;;;;;;;5.88;1.45;;;;;;;23.45;43.52;99818.09;4932490;28;20546;-62
2022/06/21 10:20:37;;;;;;;3.13;1.20;;;;;;;23.54;43.32;99817.06;4975331;28;20094;-62
2022/06/21 10:23:45;;;;;;;5.00;1.17;;;;;;;23.65;43.95;99817.69;4975526;28;20451;-63
2022/06/21 10:26:27;;;;;;;5.45;1.65;;;;;;;23.80;44.03;99818.66;4975176;28;20053;-62
2022/06/21 10:29:02;;;;;;;4.68;1.35;;;;;;;23.93;43.07;99814.59;4975346;28;20530;-62
2022/06/21 10:31:47;;;;;;;4.30;1.00;;;;;;;24.00;41.81;99807.50;4975101;28;20051;-63
2022/06/21 10:34:44;;;;;;;3.50;1.35;;;;;;;24.10;41.31;99809.16;4975266;28;20086;-62
2022/06/21 10:37:36;;;;;;;3.58;1.40;;;;;;;24.18;40.28;99807.28;4975070;28;20055;-63
2022/06/21 10:40:25;;;;;;;3.20;1.42;;;;;;;24.27;41.62;99802.72;4974910;28;20590;-62
2022/06/21 10:43:32;;;;;;;5.13;1.40;;;;;;;24.40;42.30;99806.69;4974822;28;20397;-63
2022/06/21 10:45:59;;;;;;;3.85;1.27;;;;;;;24.67;42.84;99807.19;4975001;28;20050;-62
2022/06/21 10:48:45;;;;;;;4.07;1.30;;;;;;;24.93;40.51;99801.44;4974458;28;20403;-61
2022/06/21 10:51:54;;;;;;;4.63;1.27;;;;;;;25.31;40.90;99800.59;4974881;28;20051;-62
2022/06/21 10:54:47;;;;;;;3.72;1.20;;;;;;;25.84;39.61;99797.03;4969172;28;20388;-62
2022/06/21 10:57:51;;;;;;;5.63;1.83;;;;;;;26.43;40.41;99793.59;4974735;28;20109;-63
2022/06/21 11:03:35;;;;;;;3.28;1.10;;;;;;;27.63;40.16;99774.03;4974628;28;20055;-62
2022/06/21 11:06:17;;;;;;;4.28;1.23;;;;;;;28.17;38.59;99781.53;4957329;28;20141;-63
2022/06/21 11:09:10;;;;;;;3.45;1.10;;;;;;;28.64;37.97;99780.84;4974195;28;20061;-63
2022/06/21 11:11:48;;;;;;;2.75;1.15;;;;;;;29.04;35.63;99774.63;4974447;28;20109;-62
2022/06/21 11:14:29;;;;;;;4.55;1.23;;;;;;;29.36;35.83;99775.63;4974335;28;20558;-63
2022/06/21 11:17:22;;;;;;;3.95;1.20;;;;;;;29.68;36.62;99764.13;4973510;28;20070;-62
2022/06/21 11:20:15;;;;;;;4.57;1.20;;;;;;;30.00;36.92;99750.63;4972841;28;20054;-63
2022/06/21 11:22:45;;;;;;;;;;;;;;;30.30;38.30;99744.63;4974930;28;20106;-64
2022/06/21 11:25:44;;;;;;;5.90;1.50;;;;;;;30.68;35.70;99739.31;4974283;28;19926;-64
2022/06/21 11:28:29;;;;;;;3.72;1.30;;;;;;;31.01;34.73;99746.41;4931156;28;20054;-63
2022/06/21 11:31:14;;;;;;;33.75;3.05;;;;;;;31.30;34.09;99746.75;4974037;28;20392;-63
2022/06/21 11:34:00;;;;;;;3.63;1.15;;;;;;;31.59;33.70;99738.91;4973965;28;20061;-62
2022/06/21 11:36:46;;;;;;;2.67;1.02;;;;;;;31.87;33.02;99741.31;4956808;28;20058;-62
2022/06/21 11:39:34;;;;;;;3.00;1.08;;;;;;;32.10;32.13;99744.16;4973687;28;20059;-63
2022/06/21 11:42:08;;;;;;;4.70;1.50;;;;;;;32.34;31.26;99732.50;4973839;28;20066;-63
2022/06/21 11:45:09;;;;;;;4.97;1.38;;;;;;;32.41;31.45;99727.78;4956456;28;20054;-63
2022/06/21 11:48:04;;;;;;;3.55;0.88;;;;;;;32.49;29.89;99722.03;4973852;28;20046;-63
2022/06/21 11:50:51;;;;;;;4.28;1.17;;;;;;;32.52;29.83;99725.34;5062477;23;20046;-61
2022/06/21 11:53:39;;;;;;;2.38;0.77;;;;;;;32.50;29.42;99722.84;4998253;28;20042;-61
2022/06/21 11:56:27;;;;;;;3.53;1.23;;;;;;;32.43;28.77;99722.94;5013046;28;20053;-63
2022/06/21 11:59:06;;;;;;;3.08;0.95;;;;;;;32.30;28.53;99721.25;5012680;28;20531;-61
2022/06/21 12:01:53;;;;;;;2.80;1.20;;;;;;;32.01;29.72;99723.75;4995168;28;20469;-62
2022/06/21 12:04:35;;;;;;;3.33;1.05;;;;;;;31.79;29.11;99724.22;5012520;28;20089;-60
2022/06/21 12:07:23;;;;;;;3.53;1.02;;;;;;;31.51;29.65;99716.63;5012470;28;20089;-61
2022/06/21 12:09:53;;;;;;;2.20;0.90;;;;;;;31.35;29.57;99705.28;5012186;28;20053;-62
2022/06/21 12:12:37;;;;;;;2.90;0.93;;;;;;;31.17;30.23;99715.06;4994866;28;20139;-60
2022/06/21 12:15:17;;;;;;;3.45;0.75;;;;;;;31.13;30.56;99719.28;5012305;28;20049;-61
2022/06/21 12:17:50;;;;;;;3.63;1.00;;;;;;;31.21;29.84;99707.31;5012128;28;20049;-61
2022/06/21 12:20:25;;;;;;;2.72;1.17;;;;;;;31.28;29.22;99710.78;5011827;28;20724;-60
2022/06/21 12:22:59;;;;;;;1.92;0.85;;;;;;;31.37;29.06;99708.63;5012026;28;20058;-61
2022/06/21 12:25:26;;;;;;;4.72;1.10;;;;;;;31.51;29.85;99708.47;4994481;28;20058;-60
2022/06/21 12:27:59;;;;;;;4.05;1.20;;;;;;;31.64;29.92;99712.91;5011806;28;20056;-63
2022/06/21 12:30:46;;;;;;;2.42;0.90;;;;;;;31.80;28.68;99715.00;5011980;28;20499;-62
2022/06/21 12:33:18;;;;;;;4.05;1.02;;;;;;;31.95;28.99;99703.72;5012278;28;20133;-63
2022/06/21 12:36:14;;;;;;;4.15;1.13;;;;;;;32.14;27.77;99703.66;5011890;28;20042;-60
2022/06/21 12:38:48;;;;;;;2.55;1.00;;;;;;;32.37;27.30;99704.81;4994579;28;20058;-61
2022/06/21 12:41:18;;;;;;;5.95;1.15;;;;;;;32.50;26.88;99706.50;5011350;28;20549;-60